createdAt,value
2019-05-02T00:01:42.253Z,9.50
2019-05-02T00:04:12.390Z,9.40
2019-05-02T00:06:44.198Z,9.40
2019-05-02T00:09:13.323Z,9.40
2019-05-02T00:11:42.481Z,9.40
2019-05-02T00:14:12.009Z,9.30
2019-05-02T00:16:45.210Z,9.30
2019-05-02T00:19:13.932Z,9.30
2019-05-02T00:22:02.136Z,9.30
2019-05-02T00:24:33.862Z,9.20
2019-05-02T00:27:03.220Z,9.20
2019-05-02T00:29:32.355Z,9.20
2019-05-02T00:32:01.453Z,9.10
2019-05-02T00:34:30.609Z,9.20
2019-05-02T00:36:59.769Z,9.10
2019-05-02T00:39:28.789Z,9.10
2019-05-02T00:41:57.926Z,9.10
2019-05-02T00:44:26.995Z,9.00
2019-05-02T00:46:57.669Z,9.00
2019-05-02T00:49:30.785Z,9.00
2019-05-02T00:52:01.336Z,8.90
2019-05-02T00:54:28.140Z,8.90
2019-05-02T00:56:58.630Z,8.90
2019-05-02T00:59:27.585Z,8.80
2019-05-02T01:02:15.667Z,8.80
2019-05-02T01:04:46.666Z,8.80
2019-05-02T01:07:15.792Z,8.80
2019-05-02T01:09:46.829Z,8.80
2019-05-02T01:12:25.816Z,8.80
2019-05-02T01:14:46.355Z,8.80
2019-05-02T01:17:15.434Z,8.70
2019-05-02T01:19:47.166Z,8.70
2019-05-02T01:22:16.219Z,8.70
2019-05-02T01:24:46.269Z,8.60
2019-05-02T01:27:27.102Z,8.60
2019-05-02T01:30:18.934Z,8.60
2019-05-02T01:32:55.404Z,8.60
2019-05-02T01:35:32.734Z,8.50
2019-05-02T01:38:26.467Z,8.50
2019-05-02T01:40:54.893Z,8.50
2019-05-02T01:43:25.762Z,8.50
2019-05-02T01:45:54.880Z,8.50
2019-05-02T01:48:23.921Z,8.50
2019-05-02T01:50:52.980Z,8.40
2019-05-02T01:53:21.932Z,8.40
2019-05-02T01:55:52.082Z,8.40
2019-05-02T01:58:22.885Z,8.40
2019-05-02T02:00:52.006Z,8.30
2019-05-02T02:03:21.102Z,8.30
2019-05-02T02:05:50.142Z,8.30
2019-05-02T02:08:19.166Z,8.20
2019-05-02T02:10:50.697Z,8.20
2019-05-02T02:13:18.925Z,8.20
2019-05-02T02:15:48.383Z,8.20
2019-05-02T02:18:22.275Z,8.20
2019-05-02T02:20:58.571Z,8.20
2019-05-02T02:23:49.730Z,8.20
2019-05-02T02:26:17.729Z,8.10
2019-05-02T02:28:46.709Z,8.10
2019-05-02T02:31:15.881Z,8.10
2019-05-02T02:33:48.120Z,8.10
2019-05-02T02:36:15.557Z,8.10
2019-05-02T02:38:44.607Z,8.10
2019-05-02T02:41:15.042Z,8.10
2019-05-02T02:43:46.124Z,8.00
2019-05-02T02:46:23.358Z,8.10
2019-05-02T02:48:52.433Z,8.00
2019-05-02T02:51:24.685Z,8.00
2019-05-02T02:54:02.832Z,8.00
2019-05-02T02:56:22.962Z,8.00
2019-05-02T02:58:51.992Z,8.00
2019-05-02T03:01:28.845Z,7.90
2019-05-02T03:03:51.787Z,7.90
2019-05-02T03:06:20.849Z,7.90
2019-05-02T03:08:49.876Z,7.90
2019-05-02T03:11:23.510Z,7.90
2019-05-02T03:14:13.121Z,7.90
2019-05-02T03:16:46.884Z,7.90
2019-05-02T03:19:14.533Z,7.90
2019-05-02T03:21:54.472Z,7.90
2019-05-02T03:24:24.813Z,7.80
2019-05-02T03:26:55.247Z,7.80
2019-05-02T03:29:24.719Z,7.80
2019-05-02T03:32:11.738Z,7.70
2019-05-02T03:34:44.896Z,7.70
2019-05-02T03:37:03.218Z,7.70
2019-05-02T03:39:26.330Z,7.70
2019-05-02T03:42:02.770Z,7.70
2019-05-02T03:44:27.406Z,7.70
2019-05-02T03:47:02.200Z,7.70
2019-05-02T03:49:48.568Z,7.70
2019-05-02T03:52:17.018Z,7.70
2019-05-02T03:54:49.948Z,7.70
2019-05-02T03:57:16.807Z,7.70
2019-05-02T03:59:47.230Z,7.70
2019-05-02T04:02:20.266Z,7.70
2019-05-02T04:04:47.064Z,7.70
2019-05-02T04:07:16.178Z,7.70
2019-05-02T04:09:45.207Z,7.70
2019-05-02T04:12:21.951Z,7.60
2019-05-02T04:14:44.977Z,7.60
2019-05-02T04:17:14.066Z,7.60
2019-05-02T04:19:43.244Z,7.60
2019-05-02T04:22:12.568Z,7.60
2019-05-02T04:24:47.945Z,7.60
2019-05-02T04:27:15.115Z,7.60
2019-05-02T04:29:44.272Z,7.60
2019-05-02T04:32:14.470Z,7.60
2019-05-02T04:34:48.902Z,7.60
2019-05-02T04:37:14.689Z,7.60
2019-05-02T04:39:49.085Z,7.70
2019-05-02T04:42:22.751Z,7.70
2019-05-02T04:45:12.079Z,7.70
2019-05-02T04:47:21.821Z,7.70
2019-05-02T04:49:52.043Z,7.70
2019-05-02T04:52:21.501Z,7.70
2019-05-02T04:54:50.653Z,7.70
2019-05-02T04:57:19.651Z,7.80
2019-05-02T04:59:50.461Z,7.80
2019-05-02T05:02:21.328Z,7.80
2019-05-02T05:04:52.227Z,7.80
2019-05-02T05:07:21.282Z,7.90
2019-05-02T05:09:58.254Z,7.90
2019-05-02T05:12:21.125Z,7.90
2019-05-02T05:14:50.248Z,7.90
2019-05-02T05:17:20.019Z,8.00
2019-05-02T05:19:49.326Z,8.00
2019-05-02T05:22:18.624Z,8.10
2019-05-02T05:24:53.510Z,8.10
2019-05-02T05:27:23.117Z,8.10
2019-05-02T05:29:53.702Z,8.20
2019-05-02T05:32:22.938Z,8.20
2019-05-02T05:35:12.893Z,8.20
2019-05-02T05:37:43.312Z,8.30
2019-05-02T05:40:12.678Z,8.40
2019-05-02T05:42:41.663Z,8.40
2019-05-02T05:45:13.860Z,8.40
2019-05-02T05:47:41.374Z,8.40
2019-05-02T05:50:10.387Z,8.50
2019-05-02T05:52:42.345Z,8.60
2019-05-02T05:55:12.841Z,8.60
2019-05-02T05:57:40.929Z,8.70
2019-05-02T06:00:15.908Z,8.80
2019-05-02T06:02:52.789Z,8.80
2019-05-02T06:05:11.796Z,8.90
2019-05-02T06:07:43.945Z,8.90
2019-05-02T06:10:12.665Z,8.90
2019-05-02T06:12:41.698Z,9.00
2019-05-02T06:15:10.759Z,9.10
2019-05-02T06:17:39.881Z,9.10
2019-05-02T06:20:08.880Z,9.20
2019-05-02T06:22:37.985Z,9.30
2019-05-02T06:25:09.301Z,9.40
2019-05-02T06:27:38.193Z,9.40
2019-05-02T06:30:07.366Z,9.60
2019-05-02T06:32:36.410Z,9.60
2019-05-02T06:35:05.495Z,9.80
2019-05-02T06:37:34.617Z,9.80
2019-05-02T06:40:08.113Z,10.00
2019-05-02T06:42:34.923Z,10.10
2019-05-02T06:45:06.099Z,10.20
2019-05-02T06:47:36.054Z,10.30
2019-05-02T06:50:06.112Z,10.40
2019-05-02T06:52:37.779Z,10.50
2019-05-02T06:55:06.862Z,10.60
2019-05-02T06:57:36.031Z,10.80
2019-05-02T07:00:06.549Z,10.90
2019-05-02T07:02:35.899Z,11.10
2019-05-02T07:05:05.155Z,11.20
2019-05-02T07:07:36.992Z,11.30
2019-05-02T07:10:07.344Z,11.50
2019-05-02T07:12:36.400Z,11.60
2019-05-02T07:15:09.185Z,11.70
2019-05-02T07:17:40.777Z,11.90
2019-05-02T07:20:10.350Z,12.10
2019-05-02T07:22:40.860Z,12.20
2019-05-02T07:25:10.083Z,12.40
2019-05-02T07:27:39.397Z,12.60
2019-05-02T07:30:08.582Z,12.80
2019-05-02T07:32:37.631Z,12.90
2019-05-02T07:35:06.670Z,13.10
2019-05-02T07:37:35.713Z,13.20
2019-05-02T07:40:05.251Z,13.30
2019-05-02T07:42:36.819Z,13.40
2019-05-02T07:45:09.303Z,13.50
2019-05-02T07:47:40.101Z,13.60
2019-05-02T07:50:10.531Z,13.70
2019-05-02T07:52:41.080Z,13.70
2019-05-02T07:55:10.155Z,13.70
2019-05-02T07:57:39.380Z,13.80
2019-05-02T08:00:09.362Z,13.90
2019-05-02T08:02:38.410Z,13.90
2019-05-02T08:05:08.974Z,14.00
2019-05-02T08:07:38.204Z,14.00
2019-05-02T08:10:07.234Z,14.00
2019-05-02T08:12:36.275Z,14.10
2019-05-02T08:15:07.505Z,14.10
2019-05-02T08:17:36.744Z,14.10
2019-05-02T08:20:08.490Z,14.10
2019-05-02T08:22:36.867Z,14.10
2019-05-02T08:25:10.341Z,14.10
2019-05-02T08:27:51.011Z,14.20
2019-05-02T08:30:23.991Z,14.10
2019-05-02T08:32:53.022Z,14.10
2019-05-02T08:35:22.154Z,14.10
2019-05-02T08:37:51.239Z,14.10
2019-05-02T08:40:20.303Z,14.10
2019-05-02T08:42:49.401Z,14.10
2019-05-02T08:45:18.477Z,14.10
2019-05-02T08:47:47.511Z,14.20
2019-05-02T08:50:16.738Z,14.20
2019-05-02T08:52:48.032Z,14.20
2019-05-02T08:55:16.462Z,14.20
2019-05-02T08:57:45.484Z,14.30
2019-05-02T09:00:14.605Z,14.30
2019-05-02T09:02:43.739Z,14.30
2019-05-02T09:05:12.753Z,14.30
2019-05-02T09:07:42.996Z,14.30
2019-05-02T09:10:12.484Z,14.30
2019-05-02T09:12:45.284Z,14.30
2019-05-02T09:15:12.334Z,14.30
2019-05-02T09:17:44.637Z,14.30
2019-05-02T09:20:16.612Z,14.30
2019-05-02T09:22:46.493Z,14.40
2019-05-02T09:25:15.957Z,14.40
2019-05-02T09:27:45.105Z,14.40
2019-05-02T09:30:17.092Z,14.50
2019-05-02T09:32:44.897Z,14.50
2019-05-02T09:35:13.975Z,14.50
2019-05-02T09:37:43.060Z,14.50
2019-05-02T09:40:16.563Z,14.60
2019-05-02T09:42:43.176Z,14.60
2019-05-02T09:45:19.267Z,14.60
2019-05-02T09:47:58.265Z,14.60
2019-05-02T09:50:29.402Z,14.70
2019-05-02T09:52:49.926Z,14.70
2019-05-02T09:55:19.020Z,14.80
2019-05-02T09:57:48.067Z,14.80
2019-05-02T10:00:32.150Z,14.80
2019-05-02T10:03:02.708Z,14.80
2019-05-02T10:05:32.227Z,14.80
2019-05-02T10:08:03.134Z,14.80
2019-05-02T10:10:32.439Z,14.80
2019-05-02T10:13:02.807Z,14.80
2019-05-02T10:15:32.742Z,14.80
2019-05-02T10:18:10.589Z,14.80
2019-05-02T10:20:36.401Z,14.80
2019-05-02T10:23:05.212Z,14.80
2019-05-02T10:25:38.630Z,14.80
2019-05-02T10:28:06.579Z,14.80
2019-05-02T10:30:56.625Z,14.70
2019-05-02T10:33:27.917Z,14.70
2019-05-02T10:35:56.425Z,14.70
2019-05-02T10:38:25.526Z,14.70
2019-05-02T10:41:01.285Z,14.70
2019-05-02T10:43:25.292Z,14.70
2019-05-02T10:46:01.434Z,14.70
2019-05-02T10:48:33.006Z,14.70
2019-05-02T10:51:29.222Z,14.70
2019-05-02T10:53:58.290Z,14.70
2019-05-02T10:56:27.329Z,14.70
2019-05-02T10:58:56.355Z,14.70
2019-05-02T11:01:27.068Z,14.70
2019-05-02T11:03:57.630Z,14.70
2019-05-02T11:06:26.618Z,14.70
2019-05-02T11:08:55.598Z,14.70
2019-05-02T11:11:24.821Z,14.70
2019-05-02T11:14:25.168Z,14.70
2019-05-02T11:17:08.696Z,14.70
2019-05-02T11:19:52.362Z,14.60
2019-05-02T11:22:22.764Z,14.60
2019-05-02T11:24:52.467Z,14.60
2019-05-02T11:27:22.094Z,14.50
2019-05-02T11:29:52.710Z,14.50
2019-05-02T11:32:22.166Z,14.60
2019-05-02T11:34:52.444Z,14.60
2019-05-02T11:37:22.649Z,14.60
2019-05-02T11:39:59.556Z,14.60
2019-05-02T11:42:27.193Z,14.60
2019-05-02T11:44:54.499Z,14.70
2019-05-02T11:47:26.617Z,14.70
2019-05-02T11:49:56.021Z,14.70
2019-05-02T11:52:44.288Z,14.70
2019-05-02T11:55:13.270Z,14.70
2019-05-02T11:57:42.715Z,14.80
2019-05-02T12:00:12.379Z,14.80
2019-05-02T12:02:58.867Z,14.90
2019-05-02T12:05:44.653Z,14.90
2019-05-02T12:08:13.386Z,15.00
2019-05-02T12:10:42.516Z,15.00
2019-05-02T12:13:15.747Z,15.10
2019-05-02T12:15:44.330Z,15.10
2019-05-02T12:18:13.103Z,15.10
2019-05-02T12:20:42.715Z,15.10
2019-05-02T12:23:12.946Z,15.20
2019-05-02T12:25:42.414Z,15.20
2019-05-02T12:28:12.071Z,15.20
2019-05-02T12:30:42.530Z,15.30
2019-05-02T12:33:12.405Z,15.40
2019-05-02T12:35:43.194Z,15.30
2019-05-02T12:38:13.865Z,15.40
2019-05-02T12:40:45.920Z,15.40
2019-05-02T12:43:14.936Z,15.40
2019-05-02T12:45:43.981Z,15.40
2019-05-02T12:48:13.173Z,15.40
2019-05-02T12:50:42.250Z,15.40
2019-05-02T12:53:12.601Z,15.40
2019-05-02T12:55:42.721Z,15.40
2019-05-02T12:58:12.491Z,15.40
2019-05-02T13:00:43.066Z,15.40
2019-05-02T13:03:31.819Z,15.40
2019-05-02T13:06:03.016Z,15.40
2019-05-02T13:08:32.367Z,15.40
2019-05-02T13:11:22.207Z,15.40
2019-05-02T13:13:53.308Z,15.40
2019-05-02T13:16:23.849Z,15.50
2019-05-02T13:18:57.258Z,15.60
2019-05-02T13:21:39.251Z,15.70
2019-05-02T13:24:30.113Z,15.80
2019-05-02T13:27:01.033Z,15.90
2019-05-02T13:29:32.026Z,16.00
2019-05-02T13:32:18.945Z,16.10
2019-05-02T13:35:09.896Z,16.10
2019-05-02T13:37:39.046Z,16.20
2019-05-02T13:40:17.087Z,16.20
2019-05-02T13:42:46.354Z,16.20
2019-05-02T13:45:32.382Z,16.20
2019-05-02T13:48:02.790Z,16.30
2019-05-02T13:50:31.986Z,16.30
2019-05-02T13:53:02.678Z,16.40
2019-05-02T13:55:36.365Z,16.60
2019-05-02T13:58:05.378Z,16.70
2019-05-02T14:00:46.130Z,16.80
2019-05-02T14:03:15.178Z,16.90
2019-05-02T14:05:50.652Z,17.00
2019-05-02T14:08:35.486Z,17.00
2019-05-02T14:11:21.534Z,17.10
2019-05-02T14:13:52.153Z,17.10
2019-05-02T14:16:22.245Z,17.20
2019-05-02T14:18:53.013Z,17.20
2019-05-02T14:21:22.442Z,17.30
2019-05-02T14:23:51.938Z,17.40
2019-05-02T14:26:29.761Z,17.50
2019-05-02T14:28:53.225Z,17.60
2019-05-02T14:31:22.404Z,17.70
2019-05-02T14:34:08.946Z,17.80
2019-05-02T14:36:38.106Z,18.00
2019-05-02T14:39:07.828Z,18.10
2019-05-02T14:41:41.200Z,18.20
2019-05-02T14:44:07.707Z,18.30
2019-05-02T14:46:39.460Z,18.50
2019-05-02T14:49:07.669Z,18.60
2019-05-02T14:51:36.959Z,18.70
2019-05-02T14:54:08.419Z,18.80
2019-05-02T14:56:48.789Z,18.90
2019-05-02T14:59:19.918Z,18.90
2019-05-02T15:01:52.744Z,18.90
2019-05-02T15:04:22.641Z,19.00
2019-05-02T15:06:52.989Z,19.00
2019-05-02T15:09:26.599Z,19.00
2019-05-02T15:11:58.617Z,19.00
2019-05-02T15:14:32.855Z,19.10
2019-05-02T15:17:03.770Z,19.10
2019-05-02T15:19:33.314Z,19.10
2019-05-02T15:22:02.567Z,19.20
2019-05-02T15:24:36.168Z,19.30
2019-05-02T15:27:11.357Z,19.40
2019-05-02T15:29:33.405Z,19.40
2019-05-02T15:32:12.649Z,19.50
2019-05-02T15:35:17.592Z,19.50
2019-05-02T15:37:46.634Z,19.50
2019-05-02T15:42:56.590Z,19.60
2019-05-02T15:45:24.375Z,19.60
2019-05-02T15:47:53.455Z,19.70
2019-05-02T15:50:25.617Z,19.70
2019-05-02T15:53:03.112Z,19.80
2019-05-02T15:55:32.404Z,19.90
2019-05-02T15:58:02.253Z,20.00
2019-05-02T16:00:34.446Z,20.30
2019-05-02T16:03:04.539Z,20.60
2019-05-02T16:05:36.593Z,20.90
2019-05-02T16:08:08.208Z,21.00
2019-05-02T16:10:38.441Z,21.00
2019-05-02T16:13:08.789Z,20.90
2019-05-02T16:15:38.035Z,20.70
2019-05-02T16:18:06.987Z,20.40
2019-05-02T16:21:04.677Z,20.20
2019-05-02T16:23:32.686Z,20.00
2019-05-02T16:26:02.071Z,19.80
2019-05-02T16:28:32.332Z,19.70
2019-05-02T16:31:02.995Z,19.60
2019-05-02T16:33:32.085Z,19.50
2019-05-02T16:36:02.716Z,19.40
2019-05-02T16:38:34.896Z,19.30
2019-05-02T16:41:09.983Z,19.20
2019-05-02T16:43:33.320Z,19.00
2019-05-02T16:46:11.911Z,18.90
2019-05-02T16:48:39.171Z,18.80
2019-05-02T16:51:27.651Z,18.60
2019-05-02T16:53:38.991Z,18.60
2019-05-02T16:56:08.463Z,18.40
2019-05-02T16:58:38.108Z,18.40
2019-05-02T17:01:09.111Z,18.20
2019-05-02T17:03:38.183Z,18.10
2019-05-02T17:06:08.580Z,18.00
2019-05-02T17:09:14.729Z,17.90
2019-05-02T17:11:44.475Z,17.80
2019-05-02T17:14:13.612Z,17.70
2019-05-02T17:16:47.127Z,17.60
2019-05-02T17:19:13.453Z,17.60
2019-05-02T17:21:53.124Z,17.50
2019-05-02T17:24:17.427Z,17.40
2019-05-02T17:26:43.994Z,17.40
2019-05-02T17:29:16.570Z,17.30
2019-05-02T17:31:43.808Z,17.30
2019-05-02T17:34:14.863Z,17.20
2019-05-02T17:36:45.787Z,17.10
2019-05-02T17:39:14.485Z,17.10
2019-05-02T17:41:45.683Z,17.00
2019-05-02T17:44:18.513Z,16.90
2019-05-02T17:46:50.825Z,16.90
2019-05-02T17:49:18.248Z,16.80
2019-05-02T17:52:05.992Z,16.70
2019-05-02T17:54:35.986Z,16.70
2019-05-02T17:57:05.098Z,16.60
2019-05-02T17:59:37.737Z,16.50
2019-05-02T18:02:12.378Z,16.50
2019-05-02T18:04:37.694Z,16.40
2019-05-02T18:07:06.837Z,16.40
2019-05-02T18:09:35.935Z,16.30
2019-05-02T18:12:07.148Z,16.30
2019-05-02T18:14:35.793Z,16.20
2019-05-02T18:17:04.775Z,16.20
2019-05-02T18:19:33.766Z,16.10
2019-05-02T18:22:06.612Z,16.00
2019-05-02T18:24:37.329Z,16.00
2019-05-02T18:27:04.561Z,16.00
2019-05-02T18:29:36.232Z,15.90
2019-05-02T18:32:04.356Z,15.90
2019-05-02T18:34:33.427Z,15.80
2019-05-02T18:37:06.139Z,15.70
2019-05-02T18:39:34.867Z,15.70
2019-05-02T18:42:03.884Z,15.60
2019-05-02T18:44:32.924Z,15.60
2019-05-02T18:47:02.411Z,15.60
2019-05-02T18:49:32.114Z,15.50
2019-05-02T18:52:01.778Z,15.40
2019-05-02T18:54:31.037Z,15.40
2019-05-02T18:57:00.077Z,15.40
2019-05-02T18:59:29.075Z,15.30
2019-05-02T19:01:59.582Z,15.30
2019-05-02T19:04:34.984Z,15.20
2019-05-02T19:06:59.620Z,15.20
2019-05-02T19:09:33.060Z,15.10
2019-05-02T19:12:07.570Z,15.10
2019-05-02T19:14:35.306Z,15.00
2019-05-02T19:17:07.331Z,15.00
2019-05-02T19:19:36.836Z,14.90
2019-05-02T19:22:07.449Z,14.90
2019-05-02T19:24:36.838Z,14.80
2019-05-02T19:27:06.366Z,14.80
2019-05-02T19:29:39.162Z,14.80
2019-05-02T19:32:12.218Z,14.70
2019-05-02T19:35:03.264Z,14.70
2019-05-02T19:37:46.070Z,14.60
2019-05-02T19:40:10.100Z,14.60
2019-05-02T19:42:39.257Z,14.50
2019-05-02T19:45:15.245Z,14.50
2019-05-02T19:47:42.012Z,14.50
2019-05-02T19:50:36.707Z,14.50
2019-05-02T19:53:04.481Z,14.40
2019-05-02T19:55:33.739Z,14.40
2019-05-02T19:58:06.429Z,14.30
2019-05-02T20:00:36.653Z,14.30
2019-05-02T20:03:04.589Z,14.30
2019-05-02T20:05:33.734Z,14.30
2019-05-02T20:08:02.790Z,14.20
2019-05-02T20:10:32.296Z,14.20
2019-05-02T20:13:03.094Z,14.10
2019-05-02T20:15:34.018Z,14.10
2019-05-02T20:18:04.756Z,14.10
2019-05-02T20:20:40.701Z,14.10
2019-05-02T20:23:17.920Z,14.00
2019-05-02T20:25:42.675Z,14.00
2019-05-02T20:28:13.020Z,13.90
2019-05-02T20:30:42.209Z,13.90
2019-05-02T20:33:12.881Z,13.90
2019-05-02T20:35:42.229Z,13.90
2019-05-02T20:38:13.495Z,13.80
2019-05-02T20:40:42.619Z,13.80
2019-05-02T20:43:12.138Z,13.70
2019-05-02T20:45:41.245Z,13.70
2019-05-02T20:48:11.912Z,13.70
2019-05-02T20:50:42.402Z,13.60
2019-05-02T20:53:12.824Z,13.60
2019-05-02T20:55:42.467Z,13.60
2019-05-02T20:58:12.653Z,13.50
2019-05-02T21:00:42.670Z,13.50
2019-05-02T21:03:11.999Z,13.50
2019-05-02T21:05:54.247Z,13.50
2019-05-02T21:08:36.544Z,13.50
2019-05-02T21:11:05.605Z,13.40
2019-05-02T21:13:53.814Z,13.40
2019-05-02T21:16:29.421Z,13.40
2019-05-02T21:18:58.451Z,13.30
2019-05-02T21:21:27.571Z,13.30
2019-05-02T21:23:56.619Z,13.30
2019-05-02T21:26:25.691Z,13.20
2019-05-02T21:28:54.832Z,13.20
2019-05-02T21:31:23.980Z,13.20
2019-05-02T21:33:53.077Z,13.20
2019-05-02T21:36:22.682Z,13.10
2019-05-02T21:38:52.202Z,13.10
2019-05-02T21:41:22.187Z,13.10
2019-05-02T21:43:51.821Z,13.00
2019-05-02T21:46:22.315Z,13.00
2019-05-02T21:48:52.635Z,13.00
2019-05-02T21:51:46.927Z,12.90
2019-05-02T21:54:45.682Z,12.90
2019-05-02T21:57:17.339Z,12.90
2019-05-02T21:59:46.363Z,12.90
2019-05-02T22:02:15.709Z,12.80
2019-05-02T22:04:45.892Z,12.80
2019-05-02T22:07:15.010Z,12.70
2019-05-02T22:09:44.014Z,12.70
2019-05-02T22:12:13.158Z,12.70
2019-05-02T22:14:42.327Z,12.60
2019-05-02T22:17:12.699Z,12.60
2019-05-02T22:19:41.909Z,12.60
2019-05-02T22:22:12.252Z,12.60
2019-05-02T22:24:42.103Z,12.50
2019-05-02T22:27:12.371Z,12.50
2019-05-02T22:29:43.037Z,12.50
2019-05-02T22:32:12.437Z,12.50
2019-05-02T22:34:42.995Z,12.40
2019-05-02T22:37:13.929Z,12.40
2019-05-02T22:39:56.654Z,12.40
2019-05-02T22:42:25.784Z,12.40
2019-05-02T22:44:54.851Z,12.40
2019-05-02T22:47:23.948Z,12.40
2019-05-02T22:49:52.996Z,12.40
2019-05-02T22:52:22.116Z,12.40
2019-05-02T22:54:52.344Z,12.40
2019-05-02T22:57:22.615Z,12.40
2019-05-02T22:59:51.755Z,12.30
2019-05-02T23:02:21.953Z,12.30
2019-05-02T23:04:52.561Z,12.30
2019-05-02T23:07:22.265Z,12.30
2019-05-02T23:09:52.680Z,12.30
2019-05-02T23:12:22.568Z,12.20
2019-05-02T23:14:52.712Z,12.20
2019-05-02T23:17:23.201Z,12.20
2019-05-02T23:19:52.845Z,12.20
2019-05-02T23:22:22.332Z,12.10
2019-05-02T23:25:14.329Z,12.10
2019-05-02T23:27:47.767Z,12.10
2019-05-02T23:30:19.407Z,12.00
2019-05-02T23:32:48.447Z,12.00
2019-05-02T23:35:17.571Z,12.00
2019-05-02T23:37:47.808Z,12.00
2019-05-02T23:40:16.872Z,12.00
2019-05-02T23:42:45.976Z,11.90
2019-05-02T23:45:15.018Z,11.90
2019-05-02T23:47:44.045Z,11.90
2019-05-02T23:50:13.059Z,11.90
2019-05-02T23:52:42.199Z,11.90
2019-05-02T23:55:12.218Z,11.90
2019-05-02T23:57:42.025Z,11.80
